sensor_id;sensor_type;location;lat;lon;timestamp;temperature;humidity
32027;DHT22;18543;50.848;4.596;2022-08-19T00:01:57;21.20;74.70
32027;DHT22;18543;50.848;4.596;2022-08-19T00:04:30;21.20;74.60
32027;DHT22;18543;50.848;4.596;2022-08-19T00:06:58;21.20;75.30
32027;DHT22;18543;50.848;4.596;2022-08-19T00:09:28;21.20;75.30
32027;DHT22;18543;50.848;4.596;2022-08-19T00:11:58;21.10;75.20
32027;DHT22;18543;50.848;4.596;2022-08-19T00:14:26;21.10;75.50
32027;DHT22;18543;50.848;4.596;2022-08-19T00:16:53;21.10;75.00
32027;DHT22;18543;50.848;4.596;2022-08-19T00:19:23;21.00;75.30
32027;DHT22;18543;50.848;4.596;2022-08-19T00:21:50;21.00;75.00
32027;DHT22;18543;50.848;4.596;2022-08-19T00:24:20;21.00;75.60
32027;DHT22;18543;50.848;4.596;2022-08-19T00:26:47;21.00;75.60
32027;DHT22;18543;50.848;4.596;2022-08-19T00:29:17;21.00;75.10
32027;DHT22;18543;50.848;4.596;2022-08-19T00:31:44;20.90;75.30
32027;DHT22;18543;50.848;4.596;2022-08-19T00:34:13;20.90;75.40
32027;DHT22;18543;50.848;4.596;2022-08-19T00:36:42;20.90;75.10
32027;DHT22;18543;50.848;4.596;2022-08-19T00:39:10;20.80;75.90
32027;DHT22;18543;50.848;4.596;2022-08-19T00:41:41;20.80;76.00
32027;DHT22;18543;50.848;4.596;2022-08-19T00:44:21;20.80;76.20
32027;DHT22;18543;50.848;4.596;2022-08-19T00:46:54;20.80;76.60
32027;DHT22;18543;50.848;4.596;2022-08-19T00:51:57;20.80;76.20
32027;DHT22;18543;50.848;4.596;2022-08-19T00:54:25;20.70;75.70
32027;DHT22;18543;50.848;4.596;2022-08-19T00:56:57;20.70;76.00
32027;DHT22;18543;50.848;4.596;2022-08-19T00:59:25;20.70;77.30
32027;DHT22;18543;50.848;4.596;2022-08-19T01:02:15;20.70;78.10
32027;DHT22;18543;50.848;4.596;2022-08-19T01:04:43;20.70;77.90
32027;DHT22;18543;50.848;4.596;2022-08-19T01:07:13;20.60;78.00
32027;DHT22;18543;50.848;4.596;2022-08-19T01:09:45;20.60;78.40
32027;DHT22;18543;50.848;4.596;2022-08-19T01:12:12;20.60;79.00
32027;DHT22;18543;50.848;4.596;2022-08-19T01:14:40;20.60;78.90
32027;DHT22;18543;50.848;4.596;2022-08-19T01:17:10;20.60;78.90
32027;DHT22;18543;50.848;4.596;2022-08-19T01:19:42;20.60;78.90
32027;DHT22;18543;50.848;4.596;2022-08-19T01:24:53;20.50;78.20
32027;DHT22;18543;50.848;4.596;2022-08-19T01:27:22;20.50;78.50
32027;DHT22;18543;50.848;4.596;2022-08-19T01:29:50;20.50;78.60
32027;DHT22;18543;50.848;4.596;2022-08-19T01:32:17;20.50;78.70
32027;DHT22;18543;50.848;4.596;2022-08-19T01:35:03;20.40;78.90
32027;DHT22;18543;50.848;4.596;2022-08-19T01:37:45;20.40;78.50
32027;DHT22;18543;50.848;4.596;2022-08-19T01:40:14;20.40;78.60
32027;DHT22;18543;50.848;4.596;2022-08-19T01:42:43;20.30;78.40
32027;DHT22;18543;50.848;4.596;2022-08-19T01:45:11;20.30;78.70
32027;DHT22;18543;50.848;4.596;2022-08-19T01:47:38;20.30;78.70
32027;DHT22;18543;50.848;4.596;2022-08-19T01:50:07;20.20;79.60
32027;DHT22;18543;50.848;4.596;2022-08-19T01:52:39;20.20;78.60
32027;DHT22;18543;50.848;4.596;2022-08-19T01:55:14;20.20;78.60
32027;DHT22;18543;50.848;4.596;2022-08-19T01:57:47;20.20;79.00
32027;DHT22;18543;50.848;4.596;2022-08-19T02:00:19;20.10;78.70
32027;DHT22;18543;50.848;4.596;2022-08-19T02:02:47;20.10;79.00
32027;DHT22;18543;50.848;4.596;2022-08-19T02:05:14;20.10;78.40
32027;DHT22;18543;50.848;4.596;2022-08-19T02:07:48;20.10;78.30
32027;DHT22;18543;50.848;4.596;2022-08-19T02:10:19;20.10;78.60
32027;DHT22;18543;50.848;4.596;2022-08-19T02:12:47;20.00;78.30
32027;DHT22;18543;50.848;4.596;2022-08-19T02:15:16;20.00;79.10
32027;DHT22;18543;50.848;4.596;2022-08-19T02:17:46;20.00;79.10
32027;DHT22;18543;50.848;4.596;2022-08-19T02:20:13;20.00;79.60
32027;DHT22;18543;50.848;4.596;2022-08-19T02:22:41;20.00;78.90
32027;DHT22;18543;50.848;4.596;2022-08-19T02:25:14;20.00;78.60
32027;DHT22;18543;50.848;4.596;2022-08-19T02:27:42;19.90;78.50
32027;DHT22;18543;50.848;4.596;2022-08-19T02:30:16;19.90;78.30
32027;DHT22;18543;50.848;4.596;2022-08-19T02:32:43;19.90;78.50
32027;DHT22;18543;50.848;4.596;2022-08-19T02:35:13;19.80;78.30
32027;DHT22;18543;50.848;4.596;2022-08-19T02:37:42;19.80;79.20
32027;DHT22;18543;50.848;4.596;2022-08-19T02:40:32;19.80;78.70
32027;DHT22;18543;50.848;4.596;2022-08-19T02:43:03;19.80;79.70
32027;DHT22;18543;50.848;4.596;2022-08-19T02:45:37;19.70;79.10
32027;DHT22;18543;50.848;4.596;2022-08-19T02:48:07;19.70;78.90
32027;DHT22;18543;50.848;4.596;2022-08-19T02:50:49;19.70;78.90
32027;DHT22;18543;50.848;4.596;2022-08-19T02:53:23;19.60;78.50
32027;DHT22;18543;50.848;4.596;2022-08-19T02:55:51;19.60;78.00
32027;DHT22;18543;50.848;4.596;2022-08-19T02:58:22;19.60;78.60
32027;DHT22;18543;50.848;4.596;2022-08-19T03:00:53;19.50;78.30
32027;DHT22;18543;50.848;4.596;2022-08-19T03:03:22;19.50;78.40
32027;DHT22;18543;50.848;4.596;2022-08-19T03:05:49;19.50;78.20
32027;DHT22;18543;50.848;4.596;2022-08-19T03:08:24;19.40;78.10
32027;DHT22;18543;50.848;4.596;2022-08-19T03:10:52;19.40;78.80
32027;DHT22;18543;50.848;4.596;2022-08-19T03:13:20;19.30;78.50
32027;DHT22;18543;50.848;4.596;2022-08-19T03:15:47;19.40;78.40
32027;DHT22;18543;50.848;4.596;2022-08-19T03:18:16;19.30;78.30
32027;DHT22;18543;50.848;4.596;2022-08-19T03:20:49;19.20;78.70
32027;DHT22;18543;50.848;4.596;2022-08-19T03:23:16;19.20;79.10
32027;DHT22;18543;50.848;4.596;2022-08-19T03:25:46;19.20;79.00
32027;DHT22;18543;50.848;4.596;2022-08-19T03:28:33;19.20;79.30
32027;DHT22;18543;50.848;4.596;2022-08-19T03:31:07;19.20;78.60
32027;DHT22;18543;50.848;4.596;2022-08-19T03:33:55;19.20;78.80
32027;DHT22;18543;50.848;4.596;2022-08-19T03:36:24;19.10;78.60
32027;DHT22;18543;50.848;4.596;2022-08-19T03:38:59;19.10;78.70
32027;DHT22;18543;50.848;4.596;2022-08-19T03:41:32;19.10;78.40
32027;DHT22;18543;50.848;4.596;2022-08-19T03:44:30;19.10;79.50
32027;DHT22;18543;50.848;4.596;2022-08-19T03:47:01;19.00;78.50
32027;DHT22;18543;50.848;4.596;2022-08-19T03:49:30;19.00;79.00
32027;DHT22;18543;50.848;4.596;2022-08-19T03:52:01;19.00;79.40
32027;DHT22;18543;50.848;4.596;2022-08-19T03:54:29;19.00;79.40
32027;DHT22;18543;50.848;4.596;2022-08-19T03:56:57;19.00;79.40
32027;DHT22;18543;50.848;4.596;2022-08-19T03:59:30;19.00;79.80
32027;DHT22;18543;50.848;4.596;2022-08-19T04:02:00;18.90;79.40
32027;DHT22;18543;50.848;4.596;2022-08-19T04:04:28;18.90;78.80
32027;DHT22;18543;50.848;4.596;2022-08-19T04:06:57;18.90;79.20
32027;DHT22;18543;50.848;4.596;2022-08-19T04:09:25;18.80;78.90
32027;DHT22;18543;50.848;4.596;2022-08-19T04:11:57;18.80;79.10
32027;DHT22;18543;50.848;4.596;2022-08-19T04:14:27;18.80;79.10
32027;DHT22;18543;50.848;4.596;2022-08-19T04:16:59;18.80;78.90
32027;DHT22;18543;50.848;4.596;2022-08-19T04:19:26;18.80;79.30
32027;DHT22;18543;50.848;4.596;2022-08-19T04:21:54;18.80;79.00
32027;DHT22;18543;50.848;4.596;2022-08-19T04:24:22;18.70;79.00
32027;DHT22;18543;50.848;4.596;2022-08-19T04:26:49;18.70;78.60
32027;DHT22;18543;50.848;4.596;2022-08-19T04:29:22;18.70;79.00
32027;DHT22;18543;50.848;4.596;2022-08-19T04:31:53;18.70;79.10
32027;DHT22;18543;50.848;4.596;2022-08-19T04:34:21;18.60;78.90
32027;DHT22;18543;50.848;4.596;2022-08-19T04:36:50;18.60;78.90
32027;DHT22;18543;50.848;4.596;2022-08-19T04:39:21;18.60;79.20
32027;DHT22;18543;50.848;4.596;2022-08-19T04:41:48;18.50;78.70
32027;DHT22;18543;50.848;4.596;2022-08-19T04:44:35;18.50;79.20
32027;DHT22;18543;50.848;4.596;2022-08-19T04:47:12;18.50;79.50
32027;DHT22;18543;50.848;4.596;2022-08-19T04:50:02;18.50;79.80
32027;DHT22;18543;50.848;4.596;2022-08-19T04:52:30;18.50;80.00
32027;DHT22;18543;50.848;4.596;2022-08-19T04:54:58;18.50;80.00
32027;DHT22;18543;50.848;4.596;2022-08-19T04:57:25;18.50;79.80
32027;DHT22;18543;50.848;4.596;2022-08-19T04:59:56;18.50;79.80
32027;DHT22;18543;50.848;4.596;2022-08-19T05:02:24;18.50;79.80
32027;DHT22;18543;50.848;4.596;2022-08-19T05:05:00;18.50;79.90
32027;DHT22;18543;50.848;4.596;2022-08-19T05:07:27;18.50;80.10
32027;DHT22;18543;50.848;4.596;2022-08-19T05:09:55;18.50;80.20
32027;DHT22;18543;50.848;4.596;2022-08-19T05:12:25;18.50;80.50
32027;DHT22;18543;50.848;4.596;2022-08-19T05:14:56;18.50;80.40
32027;DHT22;18543;50.848;4.596;2022-08-19T05:17:25;18.50;80.90
32027;DHT22;18543;50.848;4.596;2022-08-19T05:19:55;18.50;81.30
32027;DHT22;18543;50.848;4.596;2022-08-19T05:22:42;18.50;81.60
32027;DHT22;18543;50.848;4.596;2022-08-19T05:25:15;18.60;81.70
32027;DHT22;18543;50.848;4.596;2022-08-19T05:27:44;18.60;82.80
32027;DHT22;18543;50.848;4.596;2022-08-19T05:30:12;18.70;82.50
32027;DHT22;18543;50.848;4.596;2022-08-19T05:32:39;18.70;82.40
32027;DHT22;18543;50.848;4.596;2022-08-19T05:35:07;18.80;82.50
32027;DHT22;18543;50.848;4.596;2022-08-19T05:37:34;18.70;82.40
32027;DHT22;18543;50.848;4.596;2022-08-19T05:40:04;18.80;82.70
32027;DHT22;18543;50.848;4.596;2022-08-19T05:42:31;18.90;82.20
32027;DHT22;18543;50.848;4.596;2022-08-19T05:44:58;18.90;82.50
32027;DHT22;18543;50.848;4.596;2022-08-19T05:47:25;18.90;82.10
32027;DHT22;18543;50.848;4.596;2022-08-19T05:49:54;19.00;83.00
32027;DHT22;18543;50.848;4.596;2022-08-19T05:52:21;19.00;83.00
32027;DHT22;18543;50.848;4.596;2022-08-19T05:54:54;19.10;82.50
32027;DHT22;18543;50.848;4.596;2022-08-19T05:57:23;19.10;82.70
32027;DHT22;18543;50.848;4.596;2022-08-19T05:59:50;19.20;82.80
32027;DHT22;18543;50.848;4.596;2022-08-19T06:02:25;19.20;82.70
32027;DHT22;18543;50.848;4.596;2022-08-19T06:04:52;19.30;82.80
32027;DHT22;18543;50.848;4.596;2022-08-19T06:07:20;19.30;82.60
32027;DHT22;18543;50.848;4.596;2022-08-19T06:09:47;19.40;83.20
32027;DHT22;18543;50.848;4.596;2022-08-19T06:12:27;19.40;82.80
32027;DHT22;18543;50.848;4.596;2022-08-19T06:14:55;19.50;83.10
32027;DHT22;18543;50.848;4.596;2022-08-19T06:17:27;19.50;82.80
32027;DHT22;18543;50.848;4.596;2022-08-19T06:19:57;19.60;83.20
32027;DHT22;18543;50.848;4.596;2022-08-19T06:22:25;19.60;82.30
32027;DHT22;18543;50.848;4.596;2022-08-19T06:24:52;19.70;82.80
32027;DHT22;18543;50.848;4.596;2022-08-19T06:27:21;19.70;82.40
32027;DHT22;18543;50.848;4.596;2022-08-19T06:29:48;19.80;82.50
32027;DHT22;18543;50.848;4.596;2022-08-19T06:32:18;19.80;82.80
32027;DHT22;18543;50.848;4.596;2022-08-19T06:34:46;19.90;81.60
32027;DHT22;18543;50.848;4.596;2022-08-19T06:37:13;19.90;82.20
32027;DHT22;18543;50.848;4.596;2022-08-19T06:39:41;20.00;81.20
32027;DHT22;18543;50.848;4.596;2022-08-19T06:42:11;20.00;81.50
32027;DHT22;18543;50.848;4.596;2022-08-19T06:44:45;20.00;82.00
32027;DHT22;18543;50.848;4.596;2022-08-19T06:47:17;20.10;82.10
32027;DHT22;18543;50.848;4.596;2022-08-19T06:49:53;20.20;81.40
32027;DHT22;18543;50.848;4.596;2022-08-19T06:52:30;20.30;80.30
32027;DHT22;18543;50.848;4.596;2022-08-19T06:55:01;20.40;80.30
32027;DHT22;18543;50.848;4.596;2022-08-19T06:57:34;20.40;80.40
32027;DHT22;18543;50.848;4.596;2022-08-19T07:00:04;20.50;79.90
32027;DHT22;18543;50.848;4.596;2022-08-19T07:02:35;20.60;78.80
32027;DHT22;18543;50.848;4.596;2022-08-19T07:05:06;20.60;78.60
32027;DHT22;18543;50.848;4.596;2022-08-19T07:07:33;20.70;80.70
32027;DHT22;18543;50.848;4.596;2022-08-19T07:10:01;20.70;79.50
32027;DHT22;18543;50.848;4.596;2022-08-19T07:12:34;20.70;81.50
32027;DHT22;18543;50.848;4.596;2022-08-19T07:15:07;20.80;81.20
32027;DHT22;18543;50.848;4.596;2022-08-19T07:17:36;20.80;81.40
32027;DHT22;18543;50.848;4.596;2022-08-19T07:20:06;20.80;81.10
32027;DHT22;18543;50.848;4.596;2022-08-19T07:22:39;20.80;80.90
32027;DHT22;18543;50.848;4.596;2022-08-19T07:25:08;20.90;80.40
32027;DHT22;18543;50.848;4.596;2022-08-19T07:27:36;20.90;80.70
32027;DHT22;18543;50.848;4.596;2022-08-19T07:30:06;21.00;80.40
32027;DHT22;18543;50.848;4.596;2022-08-19T07:32:37;21.10;80.60
32027;DHT22;18543;50.848;4.596;2022-08-19T07:35:05;21.10;79.50
32027;DHT22;18543;50.848;4.596;2022-08-19T07:37:32;21.20;78.50
32027;DHT22;18543;50.848;4.596;2022-08-19T07:40:05;21.30;77.60
32027;DHT22;18543;50.848;4.596;2022-08-19T07:42:32;21.30;76.80
32027;DHT22;18543;50.848;4.596;2022-08-19T07:45:06;21.40;78.40
32027;DHT22;18543;50.848;4.596;2022-08-19T07:47:34;21.40;77.20
32027;DHT22;18543;50.848;4.596;2022-08-19T07:50:19;21.40;77.60
32027;DHT22;18543;50.848;4.596;2022-08-19T07:52:47;21.50;76.40
32027;DHT22;18543;50.848;4.596;2022-08-19T07:55:18;21.50;76.40
32027;DHT22;18543;50.848;4.596;2022-08-19T07:58:05;21.60;77.10
32027;DHT22;18543;50.848;4.596;2022-08-19T08:00:32;21.60;75.90
32027;DHT22;18543;50.848;4.596;2022-08-19T08:03:00;21.70;76.40
32027;DHT22;18543;50.848;4.596;2022-08-19T08:05:31;21.70;75.80
32027;DHT22;18543;50.848;4.596;2022-08-19T08:08:17;21.80;75.80
32027;DHT22;18543;50.848;4.596;2022-08-19T08:11:02;21.80;75.50
32027;DHT22;18543;50.848;4.596;2022-08-19T08:13:34;21.80;77.80
32027;DHT22;18543;50.848;4.596;2022-08-19T08:27:01;21.90;77.90
32027;DHT22;18543;50.848;4.596;2022-08-19T08:29:36;21.90;77.20
32027;DHT22;18543;50.848;4.596;2022-08-19T08:32:04;22.00;78.40
32027;DHT22;18543;50.848;4.596;2022-08-19T08:34:40;22.00;77.70
32027;DHT22;18543;50.848;4.596;2022-08-19T08:37:08;22.00;76.90
32027;DHT22;18543;50.848;4.596;2022-08-19T08:39:35;22.10;75.80
32027;DHT22;18543;50.848;4.596;2022-08-19T08:42:20;22.10;75.80
32027;DHT22;18543;50.848;4.596;2022-08-19T08:45:00;22.20;76.80
32027;DHT22;18543;50.848;4.596;2022-08-19T08:47:37;22.30;75.10
32027;DHT22;18543;50.848;4.596;2022-08-19T08:50:18;22.30;75.10
32027;DHT22;18543;50.848;4.596;2022-08-19T08:52:50;22.30;76.50
32027;DHT22;18543;50.848;4.596;2022-08-19T08:55:28;22.40;75.60
32027;DHT22;18543;50.848;4.596;2022-08-19T08:58:30;22.40;75.60
32027;DHT22;18543;50.848;4.596;2022-08-19T09:00:58;22.50;75.00
32027;DHT22;18543;50.848;4.596;2022-08-19T09:03:27;22.60;75.40
32027;DHT22;18543;50.848;4.596;2022-08-19T09:14:38;22.80;74.80
32027;DHT22;18543;50.848;4.596;2022-08-19T09:17:21;22.80;76.00
32027;DHT22;18543;50.848;4.596;2022-08-19T09:20:18;22.80;75.00
32027;DHT22;18543;50.848;4.596;2022-08-19T09:22:45;22.90;74.90
32027;DHT22;18543;50.848;4.596;2022-08-19T09:25:18;22.90;75.50
32027;DHT22;18543;50.848;4.596;2022-08-19T09:27:55;22.90;75.00
32027;DHT22;18543;50.848;4.596;2022-08-19T09:30:32;22.90;76.10
32027;DHT22;18543;50.848;4.596;2022-08-19T09:33:00;22.90;75.10
32027;DHT22;18543;50.848;4.596;2022-08-19T09:35:28;23.00;75.00
32027;DHT22;18543;50.848;4.596;2022-08-19T09:37:57;22.90;75.40
32027;DHT22;18543;50.848;4.596;2022-08-19T09:40:30;23.00;75.00
32027;DHT22;18543;50.848;4.596;2022-08-19T09:43:04;23.00;74.90
32027;DHT22;18543;50.848;4.596;2022-08-19T09:45:38;23.00;74.80
32027;DHT22;18543;50.848;4.596;2022-08-19T09:48:05;23.10;74.70
32027;DHT22;18543;50.848;4.596;2022-08-19T09:50:35;23.10;75.00
32027;DHT22;18543;50.848;4.596;2022-08-19T09:53:17;23.10;75.10
32027;DHT22;18543;50.848;4.596;2022-08-19T09:55:44;23.10;75.00
32027;DHT22;18543;50.848;4.596;2022-08-19T09:58:11;23.20;74.70
32027;DHT22;18543;50.848;4.596;2022-08-19T10:00:39;23.20;74.50
32027;DHT22;18543;50.848;4.596;2022-08-19T10:03:06;23.20;74.80
32027;DHT22;18543;50.848;4.596;2022-08-19T10:05:34;23.20;74.70
32027;DHT22;18543;50.848;4.596;2022-08-19T10:08:27;23.30;74.90
32027;DHT22;18543;50.848;4.596;2022-08-19T10:10:58;23.30;74.70
32027;DHT22;18543;50.848;4.596;2022-08-19T10:13:45;23.30;74.30
32027;DHT22;18543;50.848;4.596;2022-08-19T10:16:17;23.40;74.00
32027;DHT22;18543;50.848;4.596;2022-08-19T10:18:49;23.40;74.10
32027;DHT22;18543;50.848;4.596;2022-08-19T10:21:30;23.40;73.80
32027;DHT22;18543;50.848;4.596;2022-08-19T10:24:01;23.50;74.00
32027;DHT22;18543;50.848;4.596;2022-08-19T10:26:33;23.50;73.90
32027;DHT22;18543;50.848;4.596;2022-08-19T10:29:02;23.60;74.10
32027;DHT22;18543;50.848;4.596;2022-08-19T10:31:34;23.60;74.30
32027;DHT22;18543;50.848;4.596;2022-08-19T10:34:24;23.60;74.30
32027;DHT22;18543;50.848;4.596;2022-08-19T10:36:55;23.70;73.60
32027;DHT22;18543;50.848;4.596;2022-08-19T10:39:30;23.70;73.40
32027;DHT22;18543;50.848;4.596;2022-08-19T10:42:09;23.80;73.40
32027;DHT22;18543;50.848;4.596;2022-08-19T10:44:41;23.80;73.30
32027;DHT22;18543;50.848;4.596;2022-08-19T10:47:09;23.80;73.20
32027;DHT22;18543;50.848;4.596;2022-08-19T10:49:54;23.90;73.20
32027;DHT22;18543;50.848;4.596;2022-08-19T10:52:43;23.90;74.60
32027;DHT22;18543;50.848;4.596;2022-08-19T10:55:18;23.90;73.70
32027;DHT22;18543;50.848;4.596;2022-08-19T10:58:13;23.90;73.30
32027;DHT22;18543;50.848;4.596;2022-08-19T11:00:42;24.00;73.20
32027;DHT22;18543;50.848;4.596;2022-08-19T11:03:10;24.00;73.10
32027;DHT22;18543;50.848;4.596;2022-08-19T11:05:37;24.00;73.30
32027;DHT22;18543;50.848;4.596;2022-08-19T11:08:07;24.00;73.30
32027;DHT22;18543;50.848;4.596;2022-08-19T11:10:54;24.00;73.00
32027;DHT22;18543;50.848;4.596;2022-08-19T11:13:28;24.00;73.00
32027;DHT22;18543;50.848;4.596;2022-08-19T11:16:09;24.10;73.30
32027;DHT22;18543;50.848;4.596;2022-08-19T11:18:38;24.10;72.90
32027;DHT22;18543;50.848;4.596;2022-08-19T11:21:26;24.10;73.10
32027;DHT22;18543;50.848;4.596;2022-08-19T11:23:57;24.10;73.00
32027;DHT22;18543;50.848;4.596;2022-08-19T11:26:25;24.10;72.90
32027;DHT22;18543;50.848;4.596;2022-08-19T11:28:52;24.10;73.60
32027;DHT22;18543;50.848;4.596;2022-08-19T11:31:23;24.10;73.00
32027;DHT22;18543;50.848;4.596;2022-08-19T11:33:57;24.20;73.00
32027;DHT22;18543;50.848;4.596;2022-08-19T11:36:24;24.00;72.80
32027;DHT22;18543;50.848;4.596;2022-08-19T11:38:52;24.20;73.10
32027;DHT22;18543;50.848;4.596;2022-08-19T11:41:21;24.20;73.50
32027;DHT22;18543;50.848;4.596;2022-08-19T11:43:50;24.20;73.20
32027;DHT22;18543;50.848;4.596;2022-08-19T11:46:19;24.30;72.90
32027;DHT22;18543;50.848;4.596;2022-08-19T11:48:46;24.30;72.90
32027;DHT22;18543;50.848;4.596;2022-08-19T11:51:17;24.30;73.30
32027;DHT22;18543;50.848;4.596;2022-08-19T11:53:45;24.40;73.20
32027;DHT22;18543;50.848;4.596;2022-08-19T11:56:14;24.30;73.20
32027;DHT22;18543;50.848;4.596;2022-08-19T11:58:41;24.30;75.60
32027;DHT22;18543;50.848;4.596;2022-08-19T12:01:13;24.30;73.70
32027;DHT22;18543;50.848;4.596;2022-08-19T12:03:46;24.40;73.70
32027;DHT22;18543;50.848;4.596;2022-08-19T12:06:17;24.30;74.50
32027;DHT22;18543;50.848;4.596;2022-08-19T12:08:48;24.40;73.60
32027;DHT22;18543;50.848;4.596;2022-08-19T12:11:17;24.30;73.70
32027;DHT22;18543;50.848;4.596;2022-08-19T12:13:44;24.40;74.10
32027;DHT22;18543;50.848;4.596;2022-08-19T12:16:16;24.40;73.90
32027;DHT22;18543;50.848;4.596;2022-08-19T12:18:44;24.30;73.80
32027;DHT22;18543;50.848;4.596;2022-08-19T12:21:20;24.40;74.10
32027;DHT22;18543;50.848;4.596;2022-08-19T12:23:49;24.40;73.60
32027;DHT22;18543;50.848;4.596;2022-08-19T12:26:24;24.50;74.00
32027;DHT22;18543;50.848;4.596;2022-08-19T12:28:52;24.60;73.80
32027;DHT22;18543;50.848;4.596;2022-08-19T12:31:20;24.60;73.40
32027;DHT22;18543;50.848;4.596;2022-08-19T12:33:47;24.60;73.20
32027;DHT22;18543;50.848;4.596;2022-08-19T12:36:17;24.70;73.10
32027;DHT22;18543;50.848;4.596;2022-08-19T12:38:44;24.70;72.80
32027;DHT22;18543;50.848;4.596;2022-08-19T12:41:14;24.80;73.40
32027;DHT22;18543;50.848;4.596;2022-08-19T12:43:41;24.80;72.70
32027;DHT22;18543;50.848;4.596;2022-08-19T12:46:10;24.90;72.80
32027;DHT22;18543;50.848;4.596;2022-08-19T12:48:39;24.90;72.70
32027;DHT22;18543;50.848;4.596;2022-08-19T12:51:15;25.00;72.40
32027;DHT22;18543;50.848;4.596;2022-08-19T12:53:42;25.00;72.20
32027;DHT22;18543;50.848;4.596;2022-08-19T12:56:11;25.10;72.10
32027;DHT22;18543;50.848;4.596;2022-08-19T12:58:39;25.10;71.90
32027;DHT22;18543;50.848;4.596;2022-08-19T13:01:16;25.20;72.10
32027;DHT22;18543;50.848;4.596;2022-08-19T13:03:51;25.30;71.90
32027;DHT22;18543;50.848;4.596;2022-08-19T13:06:19;25.30;72.10
32027;DHT22;18543;50.848;4.596;2022-08-19T13:08:47;25.30;71.80
32027;DHT22;18543;50.848;4.596;2022-08-19T13:11:19;25.40;71.90
32027;DHT22;18543;50.848;4.596;2022-08-19T13:13:49;25.30;71.90
32027;DHT22;18543;50.848;4.596;2022-08-19T13:16:18;25.40;71.90
32027;DHT22;18543;50.848;4.596;2022-08-19T13:18:48;25.50;72.10
32027;DHT22;18543;50.848;4.596;2022-08-19T13:21:17;25.60;71.60
32027;DHT22;18543;50.848;4.596;2022-08-19T13:23:48;25.60;71.50
32027;DHT22;18543;50.848;4.596;2022-08-19T13:26:16;25.70;71.50
32027;DHT22;18543;50.848;4.596;2022-08-19T13:28:44;25.80;70.90
32027;DHT22;18543;50.848;4.596;2022-08-19T13:31:32;25.80;71.40
32027;DHT22;18543;50.848;4.596;2022-08-19T13:34:24;25.90;71.30
32027;DHT22;18543;50.848;4.596;2022-08-19T13:36:56;25.90;71.00
32027;DHT22;18543;50.848;4.596;2022-08-19T13:39:24;25.90;71.10
32027;DHT22;18543;50.848;4.596;2022-08-19T13:41:51;26.00;71.20
32027;DHT22;18543;50.848;4.596;2022-08-19T13:44:19;26.00;71.10
32027;DHT22;18543;50.848;4.596;2022-08-19T13:46:47;26.00;70.90
32027;DHT22;18543;50.848;4.596;2022-08-19T13:49:19;26.00;71.40
32027;DHT22;18543;50.848;4.596;2022-08-19T13:51:49;26.10;71.00
32027;DHT22;18543;50.848;4.596;2022-08-19T13:54:16;26.10;70.20
32027;DHT22;18543;50.848;4.596;2022-08-19T13:56:45;26.10;70.50
32027;DHT22;18543;50.848;4.596;2022-08-19T13:59:12;26.10;70.60
32027;DHT22;18543;50.848;4.596;2022-08-19T14:01:40;26.10;70.40
32027;DHT22;18543;50.848;4.596;2022-08-19T14:04:08;26.20;70.30
32027;DHT22;18543;50.848;4.596;2022-08-19T14:06:36;26.30;70.30
32027;DHT22;18543;50.848;4.596;2022-08-19T14:09:03;26.30;70.50
32027;DHT22;18543;50.848;4.596;2022-08-19T14:11:31;26.30;71.00
32027;DHT22;18543;50.848;4.596;2022-08-19T14:13:58;26.30;70.30
32027;DHT22;18543;50.848;4.596;2022-08-19T14:16:24;26.30;69.90
32027;DHT22;18543;50.848;4.596;2022-08-19T14:18:51;26.40;70.20
32027;DHT22;18543;50.848;4.596;2022-08-19T14:21:22;26.40;69.50
32027;DHT22;18543;50.848;4.596;2022-08-19T14:23:50;26.40;69.10
32027;DHT22;18543;50.848;4.596;2022-08-19T14:26:18;26.40;69.50
32027;DHT22;18543;50.848;4.596;2022-08-19T14:28:46;26.30;70.10
32027;DHT22;18543;50.848;4.596;2022-08-19T14:31:14;26.40;69.90
32027;DHT22;18543;50.848;4.596;2022-08-19T14:33:47;26.40;70.00
32027;DHT22;18543;50.848;4.596;2022-08-19T14:36:15;26.40;70.00
32027;DHT22;18543;50.848;4.596;2022-08-19T14:38:42;26.40;70.00
32027;DHT22;18543;50.848;4.596;2022-08-19T14:41:13;26.30;70.80
32027;DHT22;18543;50.848;4.596;2022-08-19T14:43:44;26.20;70.70
32027;DHT22;18543;50.848;4.596;2022-08-19T14:46:20;26.20;69.40
32027;DHT22;18543;50.848;4.596;2022-08-19T14:48:48;26.10;70.30
32027;DHT22;18543;50.848;4.596;2022-08-19T14:51:18;26.10;70.20
32027;DHT22;18543;50.848;4.596;2022-08-19T14:53:46;26.00;70.50
32027;DHT22;18543;50.848;4.596;2022-08-19T14:56:18;26.00;70.00
32027;DHT22;18543;50.848;4.596;2022-08-19T14:58:45;26.00;70.30
32027;DHT22;18543;50.848;4.596;2022-08-19T15:01:13;25.90;71.10
32027;DHT22;18543;50.848;4.596;2022-08-19T15:03:40;25.90;71.30
32027;DHT22;18543;50.848;4.596;2022-08-19T15:06:09;25.90;71.90
32027;DHT22;18543;50.848;4.596;2022-08-19T15:08:40;25.90;72.00
32027;DHT22;18543;50.848;4.596;2022-08-19T15:11:14;26.00;71.70
32027;DHT22;18543;50.848;4.596;2022-08-19T15:13:43;25.90;70.80
32027;DHT22;18543;50.848;4.596;2022-08-19T15:16:10;25.90;70.80
32027;DHT22;18543;50.848;4.596;2022-08-19T15:18:45;25.90;71.30
32027;DHT22;18543;50.848;4.596;2022-08-19T15:21:14;25.90;72.30
32027;DHT22;18543;50.848;4.596;2022-08-19T15:23:56;25.80;71.80
32027;DHT22;18543;50.848;4.596;2022-08-19T15:26:24;25.80;72.60
32027;DHT22;18543;50.848;4.596;2022-08-19T15:28:53;25.70;71.80
32027;DHT22;18543;50.848;4.596;2022-08-19T15:31:21;25.70;72.00
32027;DHT22;18543;50.848;4.596;2022-08-19T15:33:56;25.70;72.60
32027;DHT22;18543;50.848;4.596;2022-08-19T15:36:43;25.50;74.20
32027;DHT22;18543;50.848;4.596;2022-08-19T15:39:10;25.60;75.20
32027;DHT22;18543;50.848;4.596;2022-08-19T15:41:41;25.60;75.00
32027;DHT22;18543;50.848;4.596;2022-08-19T15:44:15;25.70;74.80
32027;DHT22;18543;50.848;4.596;2022-08-19T15:46:45;25.80;74.70
32027;DHT22;18543;50.848;4.596;2022-08-19T15:49:14;25.90;74.60
32027;DHT22;18543;50.848;4.596;2022-08-19T15:51:44;25.90;73.90
32027;DHT22;18543;50.848;4.596;2022-08-19T15:54:16;26.10;73.30
32027;DHT22;18543;50.848;4.596;2022-08-19T15:56:44;26.20;72.00
32027;DHT22;18543;50.848;4.596;2022-08-19T15:59:29;26.30;72.30
32027;DHT22;18543;50.848;4.596;2022-08-19T16:02:17;26.30;73.90
32027;DHT22;18543;50.848;4.596;2022-08-19T16:05:03;26.40;72.70
32027;DHT22;18543;50.848;4.596;2022-08-19T16:07:50;26.50;74.10
32027;DHT22;18543;50.848;4.596;2022-08-19T16:10:17;26.50;73.70
32027;DHT22;18543;50.848;4.596;2022-08-19T16:12:57;26.50;72.70
32027;DHT22;18543;50.848;4.596;2022-08-19T16:15:26;26.50;74.20
32027;DHT22;18543;50.848;4.596;2022-08-19T16:17:54;26.40;71.90
32027;DHT22;18543;50.848;4.596;2022-08-19T16:20:23;26.40;72.90
32027;DHT22;18543;50.848;4.596;2022-08-19T16:22:52;26.30;72.20